MMML/MXL METAR and TAF weather

Enter ICAO airport designator
Station Type Date Time Source
MMML METAR 2018/12/15 03:47 UTC NOAA

MMML 150347Z 34004KT 10SM BKN100 OVC200 13/06 A3016 RMK 8/027


Station Type Date Time Source
MMML Decoded METAR 2018/12/15 03:47 UTC NOAA

Mexicali International Airport , Mexico (MMML) 32-38N 117-00W
Dec 14, 2018 - 10:47 PM EST / 2018.12.15 0347 UTC
Wind: from the NNW (340 degrees) at 5 MPH (4 KT):0
Visibility: 10 mile(s):0
Sky conditions: overcast
Temperature: 55 F (13 C)
Dew Point: 42 F (6 C)
Relative Humidity: 62%
Pressure (altimeter): 30.16 in. Hg (1021 hPa)
ob: MMML 150347Z 34004KT 10SM BKN100 OVC200 13/06 A3016 RMK 8/027
cycle: 4

Station Type Date Time Source
MMML TAF 2018/12/14 18:35 UTC NOAA

TAF MMML 141630Z 1418/1518 35010KT P6SM BKN100 OVC220
FM150400 34008KT P6SM SCT080 OVC140
FM151600 33006KT P6SM SCT200


Example: see airport list